Time;durP1;ratioP1;P1;durP2;ratioP2;P2;SDS_P1;SDS_P2;PMS_P1;PMS_P2;Temp;Humidity;BMP_temperature;BMP_pressure;BME280_temperature;BME280_humidity;BME280_pressure;Samples;Min_cycle;Max_cycle;Signal;HPM_P1;HPM_P2
2023/11/08 00:01:46;;;;;;;4.93;3.50;;;9.40;99.90;;;;;;5080885;28;20495;-36
2023/11/08 00:04:13;;;;;;;5.32;3.67;;;9.40;99.90;;;;;;5079809;28;20020;-36
2023/11/08 00:06:39;;;;;;;4.38;3.30;;;9.30;99.90;;;;;;5079922;28;20107;-36
2023/11/08 00:09:05;;;;;;;3.65;3.35;;;9.30;99.90;;;;;;5079104;28;20030;-36
2023/11/08 00:11:32;;;;;;;3.70;3.40;;;9.30;99.90;;;;;;5079875;28;20354;-36
2023/11/08 00:13:57;;;;;;;8.27;4.45;;;9.30;99.90;;;;;;5079639;28;20456;-36
2023/11/08 00:16:23;;;;;;;4.25;3.85;;;9.30;99.90;;;;;;5079465;28;20498;-37
2023/11/08 00:18:48;;;;;;;4.53;3.58;;;9.30;99.90;;;;;;5079523;28;20028;-36
2023/11/08 00:21:14;;;;;;;5.40;3.72;;;9.30;99.90;;;;;;5078841;28;20024;-38
2023/11/08 00:23:40;;;;;;;4.65;3.65;;;9.30;99.90;;;;;;5080522;28;20127;-37
2023/11/08 00:26:06;;;;;;;5.55;3.28;;;9.20;99.90;;;;;;5082561;28;20015;-37
2023/11/08 00:28:32;;;;;;;5.00;3.80;;;9.20;99.90;;;;;;5083771;28;20032;-38
2023/11/08 00:30:58;;;;;;;3.70;3.13;;;9.20;99.90;;;;;;5083761;28;20035;-37
2023/11/08 00:33:24;;;;;;;5.40;3.22;;;9.10;99.90;;;;;;5082943;28;20024;-37
2023/11/08 00:35:51;;;;;;;4.97;3.60;;;9.10;99.90;;;;;;5083544;28;20825;-37
2023/11/08 00:38:16;;;;;;;4.22;3.30;;;9.10;99.90;;;;;;5082357;28;20066;-36
2023/11/08 00:40:42;;;;;;;4.65;3.30;;;9.10;99.90;;;;;;5071547;28;20028;-35
2023/11/08 00:43:09;;;;;;;3.97;2.78;;;9.10;99.90;;;;;;5083457;28;20028;-36
2023/11/08 00:45:37;;;;;;;3.38;2.90;;;9.20;99.90;;;;;;5083160;28;20027;-35
2023/11/08 00:48:05;;;;;;;3.00;2.70;;;9.20;99.90;;;;;;5082155;28;20060;-36
2023/11/08 00:50:31;;;;;;;4.30;2.85;;;9.20;99.90;;;;;;5071302;28;20085;-36
2023/11/08 00:52:58;;;;;;;3.05;2.58;;;9.20;99.90;;;;;;5083239;28;20028;-36
2023/11/08 00:55:24;;;;;;;4.43;3.22;;;9.30;99.90;;;;;;5069934;28;20030;-36
2023/11/08 00:57:50;;;;;;;4.15;3.00;;;9.20;99.90;;;;;;5083812;28;20070;-38
2023/11/08 01:00:17;;;;;;;7.30;2.95;;;9.20;99.90;;;;;;5069897;28;20036;-36
2023/11/08 01:02:44;;;;;;;3.88;2.85;;;9.20;99.90;;;;;;5081896;28;20074;-36
2023/11/08 01:05:10;;;;;;;3.42;2.80;;;9.10;99.90;;;;;;5072723;28;20111;-36
2023/11/08 01:07:36;;;;;;;4.00;2.70;;;9.10;99.90;;;;;;5080136;28;20119;-36
2023/11/08 01:10:02;;;;;;;3.28;2.70;;;9.10;99.90;;;;;;5075193;28;20373;-36
2023/11/08 01:12:37;;;;;;;4.20;2.85;;;9.10;99.90;;;;;;5077530;28;20153;-36
2023/11/08 01:15:03;;;;;;;4.72;3.38;;;9.10;99.90;;;;;;5076418;28;20024;-36
2023/11/08 01:17:30;;;;;;;4.75;2.80;;;9.10;99.90;;;;;;5076005;28;20378;-36
2023/11/08 01:19:56;;;;;;;4.85;3.00;;;9.10;99.90;;;;;;5079401;28;20078;-36
2023/11/08 01:22:21;;;;;;;3.60;3.15;;;9.10;99.90;;;;;;5074259;28;20124;-37
2023/11/08 01:24:48;;;;;;;3.08;2.78;;;9.10;99.90;;;;;;5082354;28;20016;-36
2023/11/08 01:27:14;;;;;;;3.83;2.70;;;9.10;99.90;;;;;;5071383;28;20078;-37
2023/11/08 01:29:40;;;;;;;4.30;2.45;;;9.20;99.90;;;;;;5080562;28;20028;-36
2023/11/08 01:32:06;;;;;;;3.78;3.05;;;9.20;99.90;;;;;;5071010;28;20023;-36
2023/11/08 01:34:32;;;;;;;3.60;2.80;;;9.20;99.90;;;;;;5081896;28;20122;-37
2023/11/08 01:36:57;;;;;;;3.65;2.88;;;9.30;99.90;;;;;;5068806;28;20036;-36
2023/11/08 01:39:23;;;;;;;4.07;2.92;;;9.30;99.90;;;;;;5083185;28;20032;-36
2023/11/08 01:41:49;;;;;;;5.05;3.25;;;9.30;99.90;;;;;;5069797;28;20032;-36
2023/11/08 01:44:18;;;;;;;3.97;2.70;;;9.30;99.90;;;;;;5081256;28;20024;-36
2023/11/08 01:46:54;;;;;;;4.97;2.88;;;9.30;99.90;;;;;;5071877;28;20737;-36
2023/11/08 01:49:21;;;;;;;3.58;2.63;;;9.40;99.90;;;;;;5062181;28;20024;-36
2023/11/08 01:51:49;;;;;;;4.03;2.60;;;9.40;99.90;;;;;;5075567;28;20028;-37
2023/11/08 01:54:18;;;;;;;2.65;2.38;;;9.40;99.90;;;;;;5081349;28;20024;-37
2023/11/08 01:56:45;;;;;;;3.67;2.40;;;9.50;99.90;;;;;;5081383;28;20036;-36
2023/11/08 01:59:12;;;;;;;3.10;2.28;;;9.50;99.90;;;;;;5080810;28;20028;-38
2023/11/08 02:01:46;;;;;;;3.00;2.30;;;9.50;99.90;;;;;;5081883;28;20051;-37
2023/11/08 02:04:13;;;;;;;2.25;2.00;;;9.50;99.90;;;;;;5081413;28;20704;-36
2023/11/08 02:06:39;;;;;;;4.38;2.75;;;9.60;99.90;;;;;;5080731;28;20044;-38
2023/11/08 02:09:05;;;;;;;3.90;3.20;;;9.60;99.90;;;;;;5081074;28;20115;-36
2023/11/08 02:11:31;;;;;;;5.18;2.42;;;9.60;99.90;;;;;;5081040;28;20107;-36
2023/11/08 02:13:56;;;;;;;3.13;2.60;;;9.60;99.90;;;;;;5081297;28;20023;-40
2023/11/08 02:16:22;;;;;;;3.20;2.53;;;9.60;99.90;;;;;;5081347;28;20020;-36
2023/11/08 02:18:49;;;;;;;3.45;2.25;;;9.70;99.90;;;;;;5081202;28;20032;-36
2023/11/08 02:21:15;;;;;;;2.97;2.03;;;9.70;99.90;;;;;;5081041;28;20350;-35
2023/11/08 02:23:41;;;;;;;3.40;2.30;;;9.70;99.90;;;;;;5081720;28;20074;-37
2023/11/08 02:26:07;;;;;;;2.95;2.55;;;9.70;99.90;;;;;;5081263;28;20024;-36
2023/11/08 02:28:33;;;;;;;5.32;3.22;;;9.70;99.90;;;;;;5080977;28;20024;-36
2023/11/08 02:30:58;;;;;;;4.60;2.83;;;9.60;99.90;;;;;;5081849;28;20028;-36
2023/11/08 02:33:25;;;;;;;4.95;3.03;;;9.60;99.90;;;;;;5080780;28;20097;-37
2023/11/08 02:35:52;;;;;;;4.05;2.80;;;9.60;99.90;;;;;;5081419;28;20046;-36
2023/11/08 02:38:18;;;;;;;4.28;3.08;;;9.60;99.90;;;;;;5080255;28;20058;-36
2023/11/08 02:40:44;;;;;;;3.53;2.60;;;9.60;99.90;;;;;;5080865;28;20028;-37
2023/11/08 02:43:10;;;;;;;3.47;2.63;;;9.60;99.90;;;;;;5080832;28;20024;-37
2023/11/08 02:45:36;;;;;;;4.55;2.75;;;9.60;99.90;;;;;;5080381;28;20451;-36
2023/11/08 02:48:02;;;;;;;3.78;2.70;;;9.60;99.90;;;;;;5079681;28;20047;-36
2023/11/08 02:50:28;;;;;;;3.55;2.10;;;9.60;99.90;;;;;;5080549;28;20326;-43
2023/11/08 02:52:55;;;;;;;3.30;2.17;;;9.60;99.90;;;;;;5080596;28;20020;-36
2023/11/08 02:55:21;;;;;;;3.08;2.22;;;9.70;99.90;;;;;;5079658;28;20016;-36
2023/11/08 02:57:47;;;;;;;4.47;2.40;;;9.70;99.90;;;;;;5080749;28;20035;-38
2023/11/08 03:00:14;;;;;;;3.55;2.30;;;9.70;99.90;;;;;;5080839;28;20020;-37
2023/11/08 03:02:40;;;;;;;2.17;1.98;;;9.70;99.90;;;;;;5080401;28;20479;-37
2023/11/08 03:05:09;;;;;;;3.17;2.10;;;9.70;99.90;;;;;;5079488;28;20031;-37
2023/11/08 03:07:34;;;;;;;5.45;2.85;;;9.70;99.90;;;;;;5079923;28;20112;-37
2023/11/08 03:10:01;;;;;;;3.83;2.35;;;9.60;99.90;;;;;;5080627;28;20016;-37
2023/11/08 03:12:28;;;;;;;4.50;2.55;;;9.60;99.90;;;;;;5081339;28;20032;-47
2023/11/08 03:14:53;;;;;;;3.47;2.67;;;9.60;99.90;;;;;;5079738;28;20043;-37
2023/11/08 03:17:20;;;;;;;3.63;2.72;;;9.70;99.90;;;;;;5080562;28;20035;-37
2023/11/08 03:19:46;;;;;;;4.90;3.08;;;9.60;99.90;;;;;;5080322;28;20024;-37
2023/11/08 03:22:15;;;;;;;3.15;2.83;;;9.60;99.90;;;;;;5079792;28;20035;-38
2023/11/08 03:24:44;;;;;;;4.40;3.40;;;9.60;99.90;;;;;;5081322;28;20035;-37
2023/11/08 03:27:10;;;;;;;4.15;3.53;;;9.60;99.90;;;;;;5080763;28;20020;-36
2023/11/08 03:29:37;;;;;;;4.25;3.83;;;9.50;99.90;;;;;;5079827;28;20528;-36
2023/11/08 03:32:03;;;;;;;4.65;3.30;;;9.50;99.90;;;;;;5079504;28;20046;-36
2023/11/08 03:34:28;;;;;;;4.10;3.47;;;9.50;99.90;;;;;;5080019;28;20020;-36
2023/11/08 03:36:54;;;;;;;4.88;3.30;;;9.50;99.90;;;;;;5079753;28;20672;-36
2023/11/08 03:39:20;;;;;;;3.28;2.95;;;9.50;99.90;;;;;;5080228;28;20099;-37
2023/11/08 03:41:47;;;;;;;4.22;3.17;;;9.50;99.90;;;;;;5069307;28;20028;-36
2023/11/08 03:44:13;;;;;;;3.47;2.90;;;9.40;99.90;;;;;;5079126;28;20132;-42
2023/11/08 03:46:39;;;;;;;4.43;3.10;;;9.40;99.90;;;;;;5080719;28;20471;-36
2023/11/08 03:49:04;;;;;;;5.72;3.13;;;9.40;99.90;;;;;;5079961;28;20063;-36
2023/11/08 03:51:30;;;;;;;4.88;2.65;;;9.40;99.90;;;;;;5066905;28;20040;-43
2023/11/08 03:53:56;;;;;;;4.60;2.95;;;9.40;99.90;;;;;;5078827;28;20118;-36
2023/11/08 03:56:22;;;;;;;2.97;2.40;;;9.40;99.90;;;;;;5066507;28;20495;-36
2023/11/08 03:58:48;;;;;;;5.75;3.08;;;9.40;99.90;;;;;;5081151;28;20085;-36
2023/11/08 04:01:14;;;;;;;9.18;4.38;;;9.40;99.90;;;;;;5072643;28;20029;-37
2023/11/08 04:03:39;;;;;;;4.88;2.90;;;9.40;99.90;;;;;;5082889;28;20113;-36
2023/11/08 04:06:05;;;;;;;2.83;2.45;;;9.40;99.90;;;;;;5075123;28;20133;-35
2023/11/08 04:08:32;;;;;;;4.63;2.95;;;9.40;99.90;;;;;;5080938;28;20035;-36
2023/11/08 04:10:58;;;;;;;3.58;2.50;;;9.40;99.90;;;;;;5077742;28;20683;-36
2023/11/08 04:13:23;;;;;;;3.35;2.60;;;9.40;99.90;;;;;;5077503;28;20039;-36
2023/11/08 04:15:52;;;;;;;4.20;2.47;;;9.40;99.90;;;;;;5081575;28;20150;-37
2023/11/08 04:18:20;;;;;;;4.15;2.40;;;9.40;99.90;;;;;;5074429;28;20028;-36
2023/11/08 04:20:46;;;;;;;3.10;2.13;;;9.40;99.90;;;;;;5082369;28;20031;-37
2023/11/08 04:23:12;;;;;;;3.47;2.03;;;9.40;99.90;;;;;;5071743;28;20101;-37
2023/11/08 04:25:43;;;;;;;3.10;2.65;;;9.30;99.90;;;;;;5082134;28;20027;-37
2023/11/08 04:28:09;;;;;;;3.40;2.20;;;9.40;99.90;;;;;;5072984;28;20016;-37
2023/11/08 04:30:37;;;;;;;3.60;2.42;;;9.40;99.90;;;;;;5082984;28;20039;-37
2023/11/08 04:33:02;;;;;;;3.65;2.30;;;9.30;99.90;;;;;;5077899;28;20431;-37
2023/11/08 04:35:28;;;;;;;3.38;2.25;;;9.40;99.90;;;;;;5063691;28;20020;-36
2023/11/08 04:37:54;;;;;;;5.63;3.08;;;9.40;99.90;;;;;;5075341;28;20487;-36
2023/11/08 04:40:22;;;;;;;3.22;2.60;;;9.30;99.90;;;;;;5062821;28;20099;-37
2023/11/08 04:42:49;;;;;;;3.72;2.90;;;9.30;99.90;;;;;;5075618;28;20035;-37
2023/11/08 04:45:15;;;;;;;3.60;2.50;;;9.30;99.90;;;;;;5062732;28;20029;-36
2023/11/08 04:47:40;;;;;;;2.53;2.20;;;9.30;99.90;;;;;;5073724;28;20442;-36
2023/11/08 04:50:12;;;;;;;5.13;2.75;;;9.30;99.90;;;;;;5082888;28;20102;-37
2023/11/08 04:52:38;;;;;;;2.78;2.17;;;9.30;99.90;;;;;;5083041;28;20024;-36
2023/11/08 04:55:07;;;;;;;4.53;2.88;;;9.30;99.90;;;;;;5082795;28;20056;-36
2023/11/08 04:57:36;;;;;;;4.03;3.10;;;9.30;99.90;;;;;;5082012;28;20048;-37
2023/11/08 05:00:02;;;;;;;4.03;2.45;;;9.30;99.90;;;;;;5082734;28;20031;-37
2023/11/08 05:02:27;;;;;;;4.25;2.67;;;9.30;99.90;;;;;;5082595;28;20024;-37
2023/11/08 05:04:53;;;;;;;2.97;2.60;;;9.30;99.90;;;;;;5082967;28;20024;-37
2023/11/08 05:07:19;;;;;;;4.15;2.50;;;9.30;99.90;;;;;;5082203;28;20336;-36
2023/11/08 05:09:45;;;;;;;3.65;2.33;;;9.30;99.90;;;;;;5083633;28;20103;-35
2023/11/08 05:12:14;;;;;;;4.97;2.47;;;9.30;99.90;;;;;;5082459;28;20048;-37
2023/11/08 05:14:39;;;;;;;4.22;2.40;;;9.30;99.90;;;;;;5082183;28;20032;-37
2023/11/08 05:17:05;;;;;;;4.00;2.50;;;9.30;99.90;;;;;;5082501;28;20043;-36
2023/11/08 05:19:31;;;;;;;5.43;2.50;;;9.30;99.90;;;;;;5082170;28;20855;-36
2023/11/08 05:21:57;;;;;;;3.72;2.30;;;9.20;99.90;;;;;;5082293;28;20070;-37
2023/11/08 05:24:23;;;;;;;3.45;2.10;;;9.20;99.90;;;;;;5082515;28;20760;-37
2023/11/08 05:26:49;;;;;;;2.95;2.05;;;9.20;99.90;;;;;;5082830;28;20120;-37
2023/11/08 05:29:17;;;;;;;4.60;2.30;;;9.20;99.90;;;;;;5082047;28;20486;-37
2023/11/08 05:31:42;;;;;;;3.85;2.22;;;9.20;99.90;;;;;;5083666;28;20057;-36
2023/11/08 05:34:08;;;;;;;5.03;2.65;;;9.20;99.90;;;;;;5081944;28;20043;-37
2023/11/08 05:36:34;;;;;;;3.83;2.30;;;9.20;99.90;;;;;;5082080;28;20060;-36
2023/11/08 05:39:00;;;;;;;3.65;2.53;;;9.20;99.90;;;;;;5082461;28;20036;-37
2023/11/08 05:41:26;;;;;;;3.33;2.40;;;9.20;99.90;;;;;;5082764;28;20028;-36
2023/11/08 05:43:58;;;;;;;5.45;2.30;;;9.20;99.90;;;;;;5081278;28;20039;-36
2023/11/08 05:46:24;;;;;;;3.20;2.20;;;9.20;99.90;;;;;;5082322;28;20107;-36
2023/11/08 05:48:50;;;;;;;5.93;2.75;;;9.10;99.90;;;;;;5082241;28;20036;-36
2023/11/08 05:51:15;;;;;;;5.05;2.60;;;9.10;99.90;;;;;;5081533;28;20105;-36
2023/11/08 05:53:41;;;;;;;4.35;2.50;;;9.10;99.90;;;;;;5082049;28;20482;-36
2023/11/08 05:56:07;;;;;;;2.40;2.20;;;9.10;99.90;;;;;;5081326;28;20020;-36
2023/11/08 05:58:38;;;;;;;5.18;2.20;;;9.10;99.90;;;;;;5080619;28;20038;-36
2023/11/08 06:01:04;;;;;;;5.88;2.47;;;9.10;99.90;;;;;;5078702;28;20843;-37
2023/11/08 06:03:30;;;;;;;4.25;2.30;;;9.10;99.90;;;;;;5081787;28;20119;-36
2023/11/08 06:05:56;;;;;;;3.45;2.08;;;9.10;99.90;;;;;;5080746;28;20069;-36
2023/11/08 06:08:22;;;;;;;4.47;2.40;;;9.10;99.90;;;;;;5082009;28;20031;-37
2023/11/08 06:10:49;;;;;;;2.92;2.00;;;9.10;99.90;;;;;;5081580;28;20067;-37
2023/11/08 06:13:14;;;;;;;4.63;2.22;;;9.10;99.90;;;;;;5081763;28;20057;-37
2023/11/08 06:15:43;;;;;;;2.60;1.50;;;9.10;99.90;;;;;;5081477;28;20024;-37
2023/11/08 06:18:09;;;;;;;4.50;2.03;;;9.00;99.90;;;;;;5081149;28;20071;-37
2023/11/08 06:20:35;;;;;;;5.15;2.30;;;9.10;99.90;;;;;;5081377;28;20043;-36
2023/11/08 06:23:04;;;;;;;6.05;2.10;;;9.00;99.90;;;;;;5080337;28;20028;-36
2023/11/08 06:25:30;;;;;;;4.32;2.10;;;8.90;99.90;;;;;;5080719;28;20093;-37
2023/11/08 06:27:56;;;;;;;5.32;2.33;;;8.90;99.90;;;;;;5080806;28;20028;-37
2023/11/08 06:30:22;;;;;;;3.83;2.75;;;8.80;99.90;;;;;;5081060;28;20749;-37
2023/11/08 06:32:47;;;;;;;2.95;1.70;;;8.80;99.90;;;;;;5081815;28;20055;-37
2023/11/08 06:35:13;;;;;;;2.58;1.83;;;8.80;99.90;;;;;;5080671;28;20417;-37
2023/11/08 06:37:39;;;;;;;4.05;2.00;;;8.80;99.90;;;;;;5081342;28;20035;-36
2023/11/08 06:40:07;;;;;;;3.72;1.63;;;8.80;99.90;;;;;;5080975;28;20052;-37
2023/11/08 06:42:33;;;;;;;3.67;1.92;;;8.70;99.90;;;;;;5080987;28;20028;-36
2023/11/08 06:44:59;;;;;;;2.90;1.70;;;8.80;99.90;;;;;;5080218;28;20031;-36
2023/11/08 06:47:25;;;;;;;3.25;1.58;;;8.70;99.90;;;;;;5075869;28;20126;-36
2023/11/08 06:49:51;;;;;;;2.83;1.60;;;8.70;99.90;;;;;;5060998;28;20024;-37
2023/11/08 06:52:17;;;;;;;4.00;1.90;;;8.70;99.90;;;;;;5072089;28;20416;-37
2023/11/08 06:54:45;;;;;;;4.25;1.60;;;8.70;99.90;;;;;;5060743;28;20033;-37
2023/11/08 06:57:11;;;;;;;2.55;1.80;;;8.70;99.90;;;;;;5072482;28;20093;-38
2023/11/08 06:59:37;;;;;;;5.78;1.90;;;8.60;99.90;;;;;;5060864;28;20028;-36
2023/11/08 07:02:03;;;;;;;1.95;1.30;;;8.60;99.90;;;;;;5069353;28;20737;-37
2023/11/08 07:04:29;;;;;;;2.60;1.30;;;8.60;99.90;;;;;;5064086;28;20066;-37
2023/11/08 07:06:54;;;;;;;2.70;1.50;;;8.60;99.90;;;;;;5066802;28;20016;-37
2023/11/08 07:09:21;;;;;;;2.30;1.23;;;8.50;99.90;;;;;;5066608;28;20822;-37
2023/11/08 07:11:48;;;;;;;4.35;1.90;;;8.50;99.90;;;;;;5064604;28;20115;-36
2023/11/08 07:14:13;;;;;;;4.10;1.90;;;8.50;99.90;;;;;;5068024;28;20032;-35
2023/11/08 07:16:39;;;;;;;2.97;1.80;;;8.50;99.90;;;;;;5062381;28;20781;-38
2023/11/08 07:19:05;;;;;;;2.80;1.42;;;8.50;99.90;;;;;;5071256;28;20115;-37
2023/11/08 07:21:30;;;;;;;3.40;1.85;;;8.60;99.90;;;;;;5059228;28;20023;-36
2023/11/08 07:23:57;;;;;;;2.88;1.48;;;8.60;99.90;;;;;;5070007;28;20642;-36
2023/11/08 07:26:23;;;;;;;6.03;2.40;;;8.50;99.90;;;;;;5069048;28;20028;-36
2023/11/08 07:28:49;;;;;;;3.05;1.65;;;8.50;99.90;;;;;;5069006;28;20080;-36
2023/11/08 07:31:14;;;;;;;5.43;1.83;;;8.60;99.90;;;;;;5080873;28;20201;-36
2023/11/08 07:33:42;;;;;;;3.22;1.38;;;8.60;99.90;;;;;;5068365;28;20028;-36
2023/11/08 07:36:08;;;;;;;4.75;1.70;;;8.60;99.90;;;;;;5080260;28;20532;-36
2023/11/08 07:38:34;;;;;;;2.83;1.15;;;8.60;99.90;;;;;;5068580;28;20040;-36
2023/11/08 07:41:01;;;;;;;3.28;1.50;;;8.60;99.90;;;;;;5080118;28;20107;-36
2023/11/08 07:43:27;;;;;;;2.85;1.33;;;8.60;99.90;;;;;;5076715;28;20708;-36
2023/11/08 07:45:53;;;;;;;2.72;1.35;;;8.60;99.90;;;;;;5064053;28;20059;-36
2023/11/08 07:48:19;;;;;;;2.83;1.52;;;8.70;99.90;;;;;;5074548;28;20056;-36
2023/11/08 07:50:44;;;;;;;2.92;1.30;;;8.70;99.90;;;;;;5080299;28;20032;-36
2023/11/08 07:53:10;;;;;;;3.95;1.67;;;8.70;99.90;;;;;;5080276;28;20387;-37
2023/11/08 07:55:35;;;;;;;2.75;1.85;;;8.60;99.90;;;;;;5080814;28;20024;-35
2023/11/08 07:58:01;;;;;;;3.67;1.60;;;8.60;99.90;;;;;;5079744;28;20043;-37
2023/11/08 08:00:27;;;;;;;2.92;1.50;;;8.60;99.90;;;;;;5080380;28;20102;-36
2023/11/08 08:02:53;;;;;;;3.17;1.45;;;8.60;99.90;;;;;;5081166;28;20070;-36
2023/11/08 08:05:22;;;;;;;1.73;1.20;;;8.60;99.90;;;;;;5080309;28;20055;-37
2023/11/08 08:07:49;;;;;;;1.70;1.15;;;8.60;99.90;;;;;;5081216;28;20020;-35
2023/11/08 08:10:15;;;;;;;3.08;1.75;;;8.60;99.90;;;;;;5079900;28;20058;-36
2023/11/08 08:12:42;;;;;;;2.25;1.27;;;8.60;99.90;;;;;;5080774;28;20020;-36
2023/11/08 08:15:09;;;;;;;2.95;1.20;;;8.60;99.90;;;;;;5080430;28;20115;-36
2023/11/08 08:17:34;;;;;;;2.25;1.10;;;8.60;99.90;;;;;;5080164;28;20032;-36
2023/11/08 08:20:04;;;;;;;3.25;1.35;;;8.60;99.90;;;;;;5080475;28;20027;-37
2023/11/08 08:22:30;;;;;;;2.05;1.30;;;8.60;99.90;;;;;;5061038;28;20025;-36
2023/11/08 08:24:59;;;;;;;2.80;1.42;;;8.70;99.90;;;;;;5071045;28;20074;-37
2023/11/08 08:27:25;;;;;;;2.55;1.40;;;8.70;99.90;;;;;;5079788;28;20128;-37
2023/11/08 08:30:00;;;;;;;1.88;1.20;;;8.70;99.90;;;;;;5079676;28;20254;-37
2023/11/08 08:32:25;;;;;;;5.35;1.63;;;8.70;99.90;;;;;;5080022;28;20028;-37
2023/11/08 08:34:51;;;;;;;1.67;1.00;;;8.70;99.90;;;;;;5079722;28;20035;-37
2023/11/08 08:37:17;;;;;;;3.10;1.42;;;8.70;99.90;;;;;;5079061;28;20675;-38
2023/11/08 08:39:46;;;;;;;3.17;1.50;;;8.80;99.90;;;;;;5079545;28;20568;-36
2023/11/08 08:42:13;;;;;;;3.90;1.50;;;8.80;99.90;;;;;;5079631;28;20027;-37
2023/11/08 08:44:38;;;;;;;2.58;1.23;;;8.90;99.90;;;;;;5081194;28;20032;-37
2023/11/08 08:47:04;;;;;;;3.05;1.50;;;8.90;99.90;;;;;;5083576;28;20396;-38
2023/11/08 08:49:29;;;;;;;3.85;1.70;;;8.90;99.90;;;;;;5082041;28;20777;-36
2023/11/08 08:51:55;;;;;;;2.58;1.60;;;8.90;99.90;;;;;;5072340;28;20023;-37
2023/11/08 08:54:21;;;;;;;3.15;1.27;;;9.00;99.90;;;;;;5081999;28;20383;-36
2023/11/08 08:56:50;;;;;;;3.20;1.85;;;9.00;99.90;;;;;;5071502;28;20020;-36
2023/11/08 08:59:15;;;;;;;2.40;1.70;;;9.10;99.90;;;;;;5083664;28;20039;-36
2023/11/08 09:01:42;;;;;;;4.22;1.70;;;9.10;99.90;;;;;;5069629;28;20025;-36
2023/11/08 09:04:08;;;;;;;3.08;1.88;;;9.20;99.90;;;;;;5083312;28;20130;-38
2023/11/08 09:06:34;;;;;;;4.05;2.00;;;9.20;99.90;;;;;;5069845;28;20950;-38
2023/11/08 09:09:03;;;;;;;4.25;1.80;;;9.30;99.90;;;;;;5042543;28;20029;-37
2023/11/08 09:11:28;;;;;;;5.93;2.20;;;9.40;99.90;;;;;;5066973;28;20115;-38
2023/11/08 09:13:54;;;;;;;3.42;2.00;;;9.40;99.90;;;;;;5064250;28;20788;-38
2023/11/08 09:16:20;;;;;;;4.05;1.83;;;9.50;99.90;;;;;;5069947;28;20023;-38
2023/11/08 09:18:46;;;;;;;4.43;2.30;;;9.50;99.90;;;;;;5067540;28;20044;-37
2023/11/08 09:21:12;;;;;;;2.67;2.08;;;9.60;99.90;;;;;;5066558;28;20036;-36
2023/11/08 09:23:40;;;;;;;4.15;1.90;;;9.60;99.90;;;;;;5070195;28;20059;-37
2023/11/08 09:26:07;;;;;;;6.50;2.10;;;9.70;99.90;;;;;;5063779;28;20021;-38
2023/11/08 09:28:33;;;;;;;4.13;2.08;;;9.80;99.90;;;;;;5071865;28;20052;-38
2023/11/08 09:31:01;;;;;;;6.20;2.33;;;9.80;99.90;;;;;;5064644;28;20147;-38
2023/11/08 09:33:27;;;;;;;5.22;2.53;;;9.90;99.90;;;;;;5073485;28;20562;-38
2023/11/08 09:35:53;;;;;;;5.32;1.95;;;10.00;99.90;;;;;;5063700;28;20032;-39
2023/11/08 09:38:18;;;;;;;4.43;2.25;;;10.10;99.90;;;;;;5073508;28;20035;-35
2023/11/08 09:40:44;;;;;;;4.50;2.40;;;10.10;99.90;;;;;;5063251;28;20032;-36
2023/11/08 09:43:09;;;;;;;4.65;2.50;;;10.20;99.90;;;;;;5074001;28;20033;-37
2023/11/08 09:45:36;;;;;;;5.13;2.00;;;10.30;99.90;;;;;;5062466;28;20116;-37
2023/11/08 09:48:05;;;;;;;7.68;2.40;;;10.30;99.90;;;;;;5075373;28;20055;-37
2023/11/08 09:50:32;;;;;;;3.85;2.00;;;10.40;99.90;;;;;;5082649;28;20042;-38
2023/11/08 09:52:58;;;;;;;5.07;2.45;;;10.50;99.90;;;;;;5081851;28;20036;-37
2023/11/08 09:55:24;;;;;;;5.28;2.53;;;10.50;99.90;;;;;;5081883;28;20054;-37
2023/11/08 09:57:54;;;;;;;7.22;2.63;;;10.60;99.90;;;;;;5081677;28;20461;-37
2023/11/08 10:00:20;;;;;;;5.43;2.90;;;10.60;99.90;;;;;;5081920;28;20028;-36
2023/11/08 10:02:46;;;;;;;5.20;2.03;;;10.70;99.90;;;;;;5081635;28;20026;-37
2023/11/08 10:05:12;;;;;;;6.80;2.45;;;10.80;99.90;;;;;;5082419;28;20111;-37
2023/11/08 10:07:39;;;;;;;6.25;3.13;;;10.90;99.90;;;;;;5081930;28;20077;-38
2023/11/08 10:10:06;;;;;;;5.65;2.55;;;11.00;99.90;;;;;;5081498;28;20067;-38
2023/11/08 10:12:32;;;;;;;7.32;2.78;;;11.00;99.90;;;;;;5081701;28;20097;-38
2023/11/08 10:15:06;;;;;;;4.63;2.38;;;11.00;99.90;;;;;;5081082;28;20032;-37
2023/11/08 10:17:42;;;;;;;4.82;2.17;;;11.10;99.90;;;;;;5080999;28;20059;-36
2023/11/08 10:20:11;;;;;;;3.63;1.98;;;11.20;99.90;;;;;;5070795;28;20418;-37
2023/11/08 10:22:37;;;;;;;4.03;2.20;;;11.20;99.90;;;;;;5081325;28;20024;-36
2023/11/08 10:25:04;;;;;;;9.40;3.40;;;11.20;99.90;;;;;;5080841;28;20361;-39
2023/11/08 10:27:32;;;;;;;4.32;2.20;;;11.30;99.90;;;;;;5081233;28;20382;-37
2023/11/08 10:30:19;;;;;;;6.78;2.05;;;11.30;99.90;;;;;;5077586;28;20020;-38
2023/11/08 10:32:45;;;;;;;6.63;2.40;;;11.30;99.90;;;;;;5080873;28;20068;-39
2023/11/08 10:35:25;;;;;;;6.15;2.33;;;11.30;99.90;;;;;;5080887;28;20111;-37
2023/11/08 10:37:50;;;;;;;4.43;2.05;;;11.20;99.90;;;;;;5082092;28;20380;-37
2023/11/08 10:40:17;;;;;;;6.85;2.35;;;11.30;99.90;;;;;;5080881;28;20027;-37
2023/11/08 10:42:50;;;;;;;7.53;2.17;;;11.30;99.90;;;;;;5081883;28;20027;-37
2023/11/08 10:45:17;;;;;;;3.88;1.80;;;11.30;99.90;;;;;;5079957;28;20570;-37
2023/11/08 10:47:43;;;;;;;4.50;1.70;;;11.30;99.90;;;;;;5081217;28;20164;-38
2023/11/08 10:50:09;;;;;;;3.28;1.60;;;11.30;99.90;;;;;;5081144;28;20024;-38
2023/11/08 10:52:39;;;;;;;4.35;1.58;;;11.30;99.90;;;;;;5080908;28;20028;-38
2023/11/08 10:55:06;;;;;;;4.65;1.80;;;11.40;99.90;;;;;;5081651;28;20032;-39
2023/11/08 10:57:33;;;;;;;3.97;1.60;;;11.40;99.90;;;;;;5080823;28;20110;-37
2023/11/08 11:00:03;;;;;;;6.30;2.00;;;11.40;99.90;;;;;;5080616;28;20024;-37
2023/11/08 11:02:42;;;;;;;5.68;2.10;;;11.50;99.90;;;;;;5081116;28;20024;-37
2023/11/08 11:05:09;;;;;;;5.30;1.80;;;11.50;99.90;;;;;;5080318;28;20062;-36
2023/11/08 11:07:40;;;;;;;6.68;2.40;;;11.50;99.90;;;;;;5080922;28;20028;-37
2023/11/08 11:10:10;;;;;;;5.55;1.48;;;11.50;99.90;;;;;;5080924;28;20390;-39
2023/11/08 11:12:56;;;;;;;3.95;1.83;;;11.40;99.90;;;;;;5080761;28;20071;-36
2023/11/08 11:15:55;;;;;;;6.13;2.00;;;11.40;99.90;;;;;;5079356;28;20511;-37
2023/11/08 11:18:32;;;;;;;4.53;2.08;;;11.40;99.90;;;;;;5059959;28;20045;-36
2023/11/08 11:21:19;;;;;;;3.63;1.75;;;11.40;99.90;;;;;;5076802;28;20078;-37
2023/11/08 11:23:48;;;;;;;2.50;1.88;;;11.40;99.90;;;;;;5060854;28;20112;-36
2023/11/08 11:26:33;;;;;;;4.90;1.90;;;11.30;99.90;;;;;;5076634;28;20024;-36
2023/11/08 11:28:59;;;;;;;5.35;1.92;;;11.30;99.90;;;;;;5079893;28;20135;-38
2023/11/08 11:31:40;;;;;;;4.88;2.20;;;11.30;99.90;;;;;;5080731;28;20117;-36
2023/11/08 11:34:29;;;;;;;4.65;1.80;;;11.30;99.90;;;;;;5080845;28;20733;-38
2023/11/08 11:37:08;;;;;;;4.40;1.80;;;11.30;99.90;;;;;;5080541;28;20039;-37
2023/11/08 11:39:34;;;;;;;4.93;2.30;;;11.30;99.90;;;;;;5080668;28;20043;-37
2023/11/08 11:42:09;;;;;;;4.28;1.63;;;11.30;99.90;;;;;;5079713;28;20028;-37
2023/11/08 11:44:49;;;;;;;5.45;1.70;;;11.40;99.90;;;;;;5080599;28;20036;-37
2023/11/08 11:47:17;;;;;;;6.60;1.88;;;11.50;99.90;;;;;;5076666;28;20060;-37
2023/11/08 11:49:48;;;;;;;3.65;1.65;;;11.50;99.90;;;;;;5060735;28;20056;-36
2023/11/08 11:52:19;;;;;;;5.88;1.77;;;11.50;99.90;;;;;;5072141;28;20079;-37
2023/11/08 11:54:49;;;;;;;6.70;1.90;;;11.60;99.90;;;;;;5060661;28;20430;-37
2023/11/08 11:57:16;;;;;;;4.80;1.90;;;11.60;99.90;;;;;;5071949;28;20040;-37
2023/11/08 11:59:46;;;;;;;4.57;1.75;;;11.70;99.90;;;;;;5040276;28;20037;-37
2023/11/08 12:02:12;;;;;;;1.48;1.23;;;11.80;99.90;;;;;;5065287;28;20017;-37
2023/11/08 12:04:39;;;;;;;4.88;1.98;;;11.80;99.90;;;;;;5061260;28;20032;-38
2023/11/08 12:07:14;;;;;;;5.30;1.83;;;11.90;99.90;;;;;;5068451;28;20071;-38
2023/11/08 12:09:41;;;;;;;6.70;2.33;;;11.90;99.90;;;;;;5063333;28;20028;-37
2023/11/08 12:12:10;;;;;;;5.55;1.88;;;11.90;99.90;;;;;;5067035;28;20016;-37
2023/11/08 12:14:47;;;;;;;8.45;2.45;;;12.00;99.90;;;;;;5065760;28;20025;-43
2023/11/08 12:17:13;;;;;;;3.47;1.40;;;12.10;99.90;;;;;;5065754;28;20020;-37
2023/11/08 12:19:40;;;;;;;4.53;2.10;;;12.10;99.90;;;;;;5067979;28;20040;-37
2023/11/08 12:22:05;;;;;;;4.47;1.73;;;12.20;99.90;;;;;;5067850;28;20475;-39
2023/11/08 12:24:32;;;;;;;5.35;1.70;;;12.30;99.90;;;;;;5072250;28;20029;-37
2023/11/08 12:26:59;;;;;;;3.85;1.58;;;12.30;99.90;;;;;;5046938;28;20023;-37
2023/11/08 12:29:25;;;;;;;5.65;2.25;;;12.30;99.90;;;;;;5074445;28;20188;-37
2023/11/08 12:31:51;;;;;;;3.67;1.35;;;12.30;99.90;;;;;;5065474;28;20123;-37
2023/11/08 12:34:18;;;;;;;3.20;1.48;;;12.30;99.90;;;;;;5074922;28;20059;-38
2023/11/08 12:36:45;;;;;;;3.70;1.55;;;12.30;99.90;;;;;;5064540;28;20115;-38
2023/11/08 12:39:20;;;;;;;3.08;1.40;;;12.30;99.90;;;;;;5075609;28;20068;-37
2023/11/08 12:41:51;;;;;;;4.53;1.60;;;12.30;99.90;;;;;;5064175;28;20435;-37
2023/11/08 12:44:20;;;;;;;3.50;1.58;;;12.30;99.90;;;;;;5079898;28;20071;-37
2023/11/08 12:46:51;;;;;;;5.05;1.30;;;12.30;99.90;;;;;;5084143;28;20077;-42
2023/11/08 12:49:19;;;;;;;3.22;1.60;;;12.30;99.90;;;;;;5070686;28;20472;-38
2023/11/08 12:51:46;;;;;;;3.15;1.90;;;12.20;99.90;;;;;;5084433;28;20063;-37
2023/11/08 12:54:19;;;;;;;3.90;1.50;;;12.30;99.90;;;;;;5069815;28;20452;-37
2023/11/08 12:56:45;;;;;;;;;;;12.30;99.90;;;;;;5081665;28;20462;-38